Time;durP1;ratioP1;P1;durP2;ratioP2;P2;SDS_P1;SDS_P2;PMS_P1;PMS_P2;Temp;Humidity;BMP_temperature;BMP_pressure;BME280_temperature;BME280_humidity;BME280_pressure;Samples;Min_cycle;Max_cycle;Signal;HPM_P1;HPM_P2
2022/08/22 00:01:51;;;;;;;;;;;;;;;20.15;77.81;99004.03;4350882;32;34273;-85
2022/08/22 00:04:22;;;;;;;;;;;;;;;20.29;77.24;99001.87;4339546;33;34212;-84
2022/08/22 00:07:02;;;;;;;;;;;;;;;20.42;76.31;99005.53;4349301;32;35396;-82
2022/08/22 00:09:35;;;;;;;;;;;;;;;20.08;78.03;99008.09;4349539;33;33951;-84
2022/08/22 00:12:18;;;;;;;;;;;;;;;19.47;80.73;99007.47;4349291;32;34132;-84
2022/08/22 00:14:49;;;;;;;;;;;;;;;19.98;78.80;99008.50;4349473;32;34165;-68
2022/08/22 00:17:39;;;;;;;;;;;;;;;19.73;78.79;98999.16;4336269;32;34087;-79
2022/08/22 00:20:12;;;;;;;;;;;;;;;20.07;77.68;99005.72;4350803;32;34931;-71
2022/08/22 00:22:39;;;;;;;;;;;;;;;20.02;77.90;99006.69;4351132;32;33299;-68
2022/08/22 00:25:25;;;;;;;;;;;;;;;20.03;77.67;99004.75;4352284;32;34199;-68
2022/08/22 00:27:54;;;;;;;;;;;;;;;20.23;77.10;99005.94;4349397;33;35250;-67
2022/08/22 00:30:21;;;;;;;;;;;;;;;20.05;77.40;98999.72;4335891;33;34451;-68
2022/08/22 00:32:48;;;;;;;;;;;;;;;20.16;77.60;99005.66;4336063;33;33418;-68
2022/08/22 00:35:16;;;;;;;;;;;;;;;19.97;78.37;98995.84;4349407;33;35198;-85
2022/08/22 00:37:44;;;;;;;;;;;;;;;20.40;76.23;99002.31;4349442;33;35454;-83
2022/08/22 00:40:21;;;;;;;;;;;;;;;20.36;76.20;99009.63;4349045;32;34071;-84
2022/08/22 00:42:58;;;;;;;;;;;;;;;20.19;76.57;99011.31;4336025;33;33266;-85
2022/08/22 00:45:38;;;;;;;;;;;;;;;20.17;77.07;99012.78;4336073;33;34029;-85
2022/08/22 00:48:08;;;;;;;;;;;;;;;20.65;74.87;99012.41;4361428;32;34377;-84
2022/08/22 00:50:40;;;;;;;;;;;;;;;20.59;75.07;99010.19;4364264;32;35102;-68
2022/08/22 00:53:13;;;;;;;;;;;;;;;20.28;76.45;99011.28;4354975;32;33411;-68
2022/08/22 00:56:00;;;;;;;;;;;;;;;20.29;76.29;99010.94;4349354;33;34077;-81
2022/08/22 00:58:46;;;;;;;;;;;;;;;20.19;76.61;99014.06;4360089;32;35240;-71
2022/08/22 01:01:13;;;;;;;;;;;;;;;19.83;78.56;99011.78;4363945;32;34863;-85
2022/08/22 01:03:41;;;;;;;;;;;;;;;19.86;78.35;99013.88;4348254;32;33556;-84
2022/08/22 01:06:20;;;;;;;;;;;;;;;20.01;77.58;99007.03;4349417;33;34133;-84
2022/08/22 01:09:06;;;;;;;;;;;;;;;20.09;77.61;99008.94;4357000;32;35337;-69
2022/08/22 01:11:59;;;;;;;;;;;;;;;20.19;76.82;99014.06;4364382;32;34302;-85
2022/08/22 01:14:45;;;;;;;;;;;;;;;19.80;79.25;99010.47;4336587;32;32694;-67
2022/08/22 01:17:15;;;;;;;;;;;;;;;20.10;77.78;98998.72;4348910;33;34193;-68
2022/08/22 01:19:55;;;;;;;;;;;;;;;20.19;76.62;99003.03;4349167;33;34377;-85
2022/08/22 01:22:41;;;;;;;;;;;;;;;20.13;77.29;99001.63;4349326;32;34056;-82
2022/08/22 01:25:24;;;;;;;;;;;;;;;20.40;76.11;98999.56;4345128;33;33539;-67
2022/08/22 01:27:56;;;;;;;;;;;;;;;20.21;76.52;98999.97;4335728;33;34198;-68
2022/08/22 01:30:26;;;;;;;;;;;;;;;20.38;75.84;99005.38;4336170;33;35316;-83
2022/08/22 01:32:53;;;;;;;;;;;;;;;20.26;76.06;99003.34;4348847;33;34993;-84
2022/08/22 01:35:25;;;;;;;;;;;;;;;20.55;74.93;98998.16;4336046;33;35081;-68
2022/08/22 01:38:05;;;;;;;;;;;;;;;20.67;73.99;99004.59;4337943;32;34021;-83
2022/08/22 01:40:37;;;;;;;;;;;;;;;20.18;76.08;99003.41;4335629;33;34236;-84
2022/08/22 01:43:28;;;;;;;;;;;;;;;20.36;75.52;98999.41;4337406;33;34527;-82
2022/08/22 01:46:31;;;;;;;;;;;;;;;20.64;74.18;99008.00;4338027;33;33443;-72
2022/08/22 01:49:25;;;;;;;;;;;;;;;20.38;75.17;99010.91;4354264;32;34134;-72
2022/08/22 01:51:52;;;;;;;;;;;;;;;20.43;75.08;99005.22;4340426;32;34183;-70
2022/08/22 01:54:36;;;;;;;;;;;;;;;20.43;75.11;99001.63;4349085;33;34234;-68
2022/08/22 01:57:06;;;;;;;;;;;;;;;20.33;75.64;99005.59;4335696;33;34263;-84
2022/08/22 01:59:35;;;;;;;;;;;;;;;20.13;76.49;99001.63;4336422;33;33973;-82
2022/08/22 02:02:15;;;;;;;;;;;;;;;19.94;77.81;99006.72;4356181;32;34184;-73
2022/08/22 02:05:02;;;;;;;;;;;;;;;20.11;76.90;99003.09;4350287;32;34319;-78
2022/08/22 02:07:38;;;;;;;;;;;;;;;20.12;76.88;98999.19;4363701;32;33239;-68
2022/08/22 02:10:15;;;;;;;;;;;;;;;20.40;75.77;99002.31;4349945;32;34870;-81
2022/08/22 02:12:48;;;;;;;;;;;;;;;20.43;75.49;99004.38;4363341;32;35321;-84
2022/08/22 02:15:34;;;;;;;;;;;;;;;20.63;74.74;98995.41;4349876;32;34875;-84
2022/08/22 02:18:01;;;;;;;;;;;;;;;20.70;74.48;99000.38;4357259;32;32013;-68
2022/08/22 02:20:32;;;;;;;;;;;;;;;20.59;75.21;98993.66;4362774;32;34167;-78
2022/08/22 02:23:03;;;;;;;;;;;;;;;20.47;75.55;98997.06;4363562;32;34235;-68
2022/08/22 02:25:32;;;;;;;;;;;;;;;20.68;74.92;98988.88;4350228;32;34268;-67
2022/08/22 02:28:02;;;;;;;;;;;;;;;20.86;73.79;98990.38;4348727;32;33565;-69
2022/08/22 02:30:49;;;;;;;;;;;;;;;20.64;74.71;98985.97;4362453;32;34221;-68
2022/08/22 02:33:25;;;;;;;;;;;;;;;20.68;74.80;98977.84;4348392;33;35368;-84
2022/08/22 02:35:53;;;;;;;;;;;;;;;20.43;75.41;98987.84;4335619;33;34168;-68
2022/08/22 02:38:23;;;;;;;;;;;;;;;20.00;77.42;98983.38;4357563;32;33428;-67
2022/08/22 02:41:06;;;;;;;;;;;;;;;20.38;76.15;98979.78;4363590;32;33668;-68
2022/08/22 02:43:36;;;;;;;;;;;;;;;20.69;74.77;98976.69;4363158;32;34369;-82
2022/08/22 02:46:42;;;;;;;;;;;;;;;20.39;76.03;98984.16;4344974;33;33513;-68
2022/08/22 02:49:20;;;;;;;;;;;;;;;20.25;76.36;98973.38;4287852;33;31810;-67
2022/08/22 02:51:47;;;;;;;;;;;;;;;20.73;74.31;98977.63;4309703;33;33958;-83
2022/08/22 02:54:21;;;;;;;;;;;;;;;20.54;75.08;98978.09;4336273;32;33985;-84
2022/08/22 02:57:07;;;;;;;;;;;;;;;20.57;74.74;98979.34;4349775;32;34227;-83
2022/08/22 02:59:59;;;;;;;;;;;;;;;20.55;75.37;98974.16;4363094;32;33378;-68
2022/08/22 03:02:28;;;;;;;;;;;;;;;20.39;75.72;98975.88;4348010;32;34449;-69
2022/08/22 03:04:57;;;;;;;;;;;;;;;20.44;75.83;98973.75;4335290;32;34524;-81
2022/08/22 03:07:30;;;;;;;;;;;;;;;20.26;76.61;98972.25;4349637;32;34185;-83
2022/08/22 03:10:09;;;;;;;;;;;;;;;20.40;76.02;98978.31;4349644;32;34286;-84
2022/08/22 03:12:54;;;;;;;;;;;;;;;20.51;75.68;98980.69;4349879;32;35027;-81
2022/08/22 03:15:35;;;;;;;;;;;;;;;20.61;74.96;98980.34;4347494;32;35391;-83
2022/08/22 03:18:05;;;;;;;;;;;;;;;20.35;75.83;98980.47;4349651;32;34211;-67
2022/08/22 03:20:42;;;;;;;;;;;;;;;20.93;72.96;98987.06;4331676;33;34203;-81
2022/08/22 03:23:12;;;;;;;;;;;;;;;20.52;74.45;98990.56;4348197;33;34050;-82
2022/08/22 03:25:42;;;;;;;;;;;;;;;20.69;73.97;98980.28;4348080;33;34514;-73
2022/08/22 03:28:33;;;;;;;;;;;;;;;20.42;75.28;98984.28;4348470;32;34861;-83
2022/08/22 03:31:16;;;;;;;;;;;;;;;21.00;72.72;98995.59;4349069;32;33491;-68
2022/08/22 03:33:44;;;;;;;;;;;;;;;20.66;73.67;98993.91;4353119;32;33954;-78
2022/08/22 03:36:14;;;;;;;;;;;;;;;20.74;73.75;98995.81;4346267;32;35374;-82
2022/08/22 03:38:42;;;;;;;;;;;;;;;20.52;74.55;98996.91;4361535;32;34728;-83
2022/08/22 03:41:12;;;;;;;;;;;;;;;20.47;75.14;99000.66;4356555;32;33262;-71
2022/08/22 03:43:48;;;;;;;;;;;;;;;20.46;75.10;99000.97;4350460;32;34814;-68
2022/08/22 03:46:18;;;;;;;;;;;;;;;20.56;75.15;98999.78;4335027;33;34057;-76
2022/08/22 03:49:07;;;;;;;;;;;;;;;20.77;74.19;99000.63;4348571;32;35056;-69
2022/08/22 03:51:37;;;;;;;;;;;;;;;20.84;73.83;99006.44;4346794;33;34192;-84
2022/08/22 03:54:16;;;;;;;;;;;;;;;20.57;74.91;99002.22;4348288;32;34183;-84
2022/08/22 03:56:57;;;;;;;;;;;;;;;20.43;75.19;99004.38;4360731;32;34279;-69
2022/08/22 03:59:45;;;;;;;;;;;;;;;20.43;75.26;99012.66;4361131;32;34240;-85
2022/08/22 04:02:18;;;;;;;;;;;;;;;20.60;74.89;99007.06;4349828;32;33380;-82
2022/08/22 04:05:16;;;;;;;;;;;;;;;20.89;73.83;99011.75;4353164;32;35100;-79
2022/08/22 04:07:45;;;;;;;;;;;;;;;21.04;73.18;99013.09;4337752;33;34364;-76
2022/08/22 04:10:24;;;;;;;;;;;;;;;20.82;73.81;99011.50;4352042;32;34049;-77
2022/08/22 04:13:10;;;;;;;;;;;;;;;20.97;73.71;99015.59;4346704;32;33525;-69
2022/08/22 04:15:45;;;;;;;;;;;;;;;20.94;73.63;99016.25;4355559;32;34239;-68
2022/08/22 04:18:27;;;;;;;;;;;;;;;20.75;74.73;99005.69;4334289;33;34428;-67
2022/08/22 04:21:15;;;;;;;;;;;;;;;21.17;73.11;99018.69;4350287;32;35003;-68
2022/08/22 04:23:43;;;;;;;;;;;;;;;21.20;73.00;99013.28;4347338;33;33811;-68
2022/08/22 04:26:14;;;;;;;;;;;;;;;20.89;74.41;99008.19;4348273;32;34347;-64
2022/08/22 04:28:47;;;;;;;;;;;;;;;20.67;75.49;99017.59;4347671;32;35221;-64
2022/08/22 04:31:16;;;;;;;;;;;;;;;20.60;76.10;99015.34;4347697;32;34278;-81
2022/08/22 04:33:45;;;;;;;;;;;;;;;20.85;75.09;99021.84;4331914;32;33175;-82
2022/08/22 04:36:12;;;;;;;;;;;;;;;20.99;74.74;99021.59;4345919;33;35373;-78
2022/08/22 04:38:47;;;;;;;;;;;;;;;20.90;75.28;99020.81;4345861;32;35423;-70
2022/08/22 04:41:19;;;;;;;;;;;;;;;20.96;75.50;99029.72;4354286;32;34233;-67
2022/08/22 04:43:46;;;;;;;;;;;;;;;21.06;75.30;99023.81;4348707;32;33494;-67
2022/08/22 04:46:30;;;;;;;;;;;;;;;21.23;74.51;99025.59;4363023;32;34430;-66
2022/08/22 04:49:21;;;;;;;;;;;;;;;21.03;75.77;99028.00;4339062;33;35162;-67
2022/08/22 04:52:09;;;;;;;;;;;;;;;21.19;75.26;99032.97;4334873;33;34865;-67
2022/08/22 04:54:39;;;;;;;;;;;;;;;21.29;74.78;99033.34;4338110;32;33291;-66
2022/08/22 04:57:07;;;;;;;;;;;;;;;21.52;73.66;99030.25;4347769;32;34292;-66
2022/08/22 04:59:34;;;;;;;;;;;;;;;21.40;74.44;99025.44;4347954;33;35312;-68
2022/08/22 05:02:05;;;;;;;;;;;;;;;21.12;75.69;99030.72;4316337;32;34409;-67
2022/08/22 05:04:42;;;;;;;;;;;;;;;21.28;74.67;99036.44;4349127;32;34187;-72
2022/08/22 05:07:14;;;;;;;;;;;;;;;20.84;76.69;99038.69;4349452;32;34537;-65
2022/08/22 05:09:42;;;;;;;;;;;;;;;21.10;75.93;99031.06;4362011;32;34064;-69
2022/08/22 05:12:13;;;;;;;;;;;;;;;21.20;75.78;99034.56;4349548;32;33955;-67
2022/08/22 05:14:45;;;;;;;;;;;;;;;21.64;73.98;99038.56;4349695;32;34168;-66
2022/08/22 05:17:14;;;;;;;;;;;;;;;21.36;75.43;99037.50;4350183;32;34051;-66
2022/08/22 05:19:49;;;;;;;;;;;;;;;21.29;76.07;99041.63;4349824;32;34501;-65
2022/08/22 05:22:18;;;;;;;;;;;;;;;21.56;75.21;99036.69;4349260;32;34357;-75
2022/08/22 05:24:48;;;;;;;;;;;;;;;21.54;75.62;99044.50;4362855;32;33912;-68
2022/08/22 05:27:20;;;;;;;;;;;;;;;21.56;75.50;99041.41;4348676;32;34282;-65
2022/08/22 05:29:48;;;;;;;;;;;;;;;21.73;75.02;99049.53;4333448;33;35009;-72
2022/08/22 05:32:21;;;;;;;;;;;;;;;21.82;74.10;99050.25;4334081;33;35476;-66
2022/08/22 05:34:49;;;;;;;;;;;;;;;21.73;75.12;99054.22;4348196;33;33445;-65
2022/08/22 05:37:19;;;;;;;;;;;;;;;21.55;76.32;99054.38;4347676;33;34008;-69
2022/08/22 05:39:47;;;;;;;;;;;;;;;21.33;78.29;99052.78;4334522;33;35408;-68
2022/08/22 05:42:24;;;;;;;;;;;;;;;21.68;76.60;99060.78;4334521;32;34300;-68
2022/08/22 05:44:51;;;;;;;;;;;;;;;21.04;77.62;99064.69;4334378;33;33474;-69
2022/08/22 05:47:23;;;;;;;;;;;;;;;21.12;79.65;99060.25;4334120;33;34226;-83
2022/08/22 05:49:54;;;;;;;;;;;;;;;21.51;80.75;99061.72;4334410;33;34378;-72
2022/08/22 05:52:40;;;;;;;;;;;;;;;21.79;80.26;99064.75;4341515;33;34123;-81
2022/08/22 05:55:31;;;;;;;;;;;;;;;22.10;77.48;99066.19;4355954;32;33578;-69
2022/08/22 05:58:06;;;;;;;;;;;;;;;22.14;73.32;99075.41;4340768;32;34131;-82
2022/08/22 06:00:34;;;;;;;;;;;;;;;21.20;76.08;99068.47;4349115;32;34103;-68
2022/08/22 06:03:11;;;;;;;;;;;;;;;21.64;75.21;99076.41;4348960;32;35013;-68
2022/08/22 06:05:39;;;;;;;;;;;;;;;21.55;76.91;99078.44;4362614;32;33161;-78
2022/08/22 06:08:13;;;;;;;;;;;;;;;21.33;77.02;99085.87;4339780;33;33906;-69
2022/08/22 06:10:41;;;;;;;;;;;;;;;21.94;74.83;99079.84;4334652;33;35267;-71
2022/08/22 06:13:14;;;;;;;;;;;;;;;22.37;73.76;99075.81;4336608;33;34338;-70
2022/08/22 06:15:52;;;;;;;;;;;;;;;21.53;76.54;99084.28;4336135;33;33241;-80
2022/08/22 06:18:20;;;;;;;;;;;;;;;22.20;74.60;99081.50;4348512;33;34373;-81
2022/08/22 06:20:54;;;;;;;;;;;;;;;22.26;75.33;99082.94;4347143;32;34370;-69
2022/08/22 06:23:26;;;;;;;;;;;;;;;22.21;75.26;99083.94;4348284;32;35032;-69
2022/08/22 06:25:53;;;;;;;;;;;;;;;22.65;73.14;99081.44;4335577;33;33271;-68
2022/08/22 06:28:22;;;;;;;;;;;;;;;22.06;76.05;99085.41;4335382;33;35175;-69
2022/08/22 06:30:49;;;;;;;;;;;;;;;22.43;74.89;99084.69;4348775;33;34018;-70
2022/08/22 06:33:17;;;;;;;;;;;;;;;22.11;76.56;99090.69;4348871;33;34973;-80
2022/08/22 06:38:52;;;;;;;;;;;;;;;22.43;74.94;99084.69;4337420;33;34302;-73
2022/08/22 06:41:20;;;;;;;;;;;;;;;22.30;72.78;99086.63;4335277;33;33853;-73
2022/08/22 06:43:49;;;;;;;;;;;;;;;22.67;71.99;99092.97;4348649;33;35103;-81
2022/08/22 06:46:16;;;;;;;;;;;;;;;22.71;72.60;99095.88;4348311;32;33803;-73
2022/08/22 06:48:43;;;;;;;;;;;;;;;22.50;74.22;99094.03;4363098;32;34872;-72
2022/08/22 06:51:11;;;;;;;;;;;;;;;22.35;73.38;99100.22;4350108;32;34377;-73
2022/08/22 06:53:43;;;;;;;;;;;;;;;22.48;73.51;99101.03;4349790;32;34010;-80
2022/08/22 06:56:34;;;;;;;;;;;;;;;22.48;74.44;99103.78;4349138;32;33427;-73
2022/08/22 06:59:02;;;;;;;;;;;;;;;22.27;73.99;99096.41;4347983;32;35162;-73
2022/08/22 07:01:33;;;;;;;;;;;;;;;22.63;73.77;99096.78;4340055;32;34332;-78
2022/08/22 07:04:03;;;;;;;;;;;;;;;22.90;73.72;99098.84;4334093;33;33944;-73
2022/08/22 07:06:40;;;;;;;;;;;;;;;22.84;76.03;99097.47;4347433;33;33945;-73
2022/08/22 07:09:15;;;;;;;;;;;;;;;23.17;74.16;99095.72;4348757;32;33628;-74
2022/08/22 07:11:43;;;;;;;;;;;;;;;23.39;73.50;99088.88;4348289;32;35391;-74
2022/08/22 07:14:11;;;;;;;;;;;;;;;23.53;73.23;99087.31;4348473;32;34196;-75
2022/08/22 07:16:38;;;;;;;;;;;;;;;23.02;73.15;99097.25;4345818;32;33447;-68
2022/08/22 07:19:06;;;;;;;;;;;;;;;23.39;73.73;99100.75;4351793;32;35042;-69
2022/08/22 07:21:41;;;;;;;;;;;;;;;23.62;70.12;99097.44;4333535;33;34461;-87
2022/08/22 07:24:09;;;;;;;;;;;;;;;23.81;69.07;99100.41;4333868;33;34215;-85
2022/08/22 07:26:40;;;;;;;;;;;;;;;23.89;68.65;99099.44;4334201;32;33394;-82
2022/08/22 07:29:13;;;;;;;;;;;;;;;23.86;69.92;99097.34;4362032;32;34265;-69
2022/08/22 07:31:46;;;;;;;;;;;;;;;22.69;71.55;99101.72;4348196;32;34573;-85
2022/08/22 07:34:37;;;;;;;;;;;;;;;23.11;71.69;99109.03;4362164;32;33925;-85
2022/08/22 07:37:11;;;;;;;;;;;;;;;23.45;69.81;99095.78;4348275;32;33345;-68
2022/08/22 07:39:42;;;;;;;;;;;;;;;23.04;72.54;99106.81;4348045;32;33875;-68
2022/08/22 07:42:10;;;;;;;;;;;;;;;23.16;69.58;99102.44;4353727;32;35058;-67
2022/08/22 07:44:43;;;;;;;;;;;;;;;22.19;72.68;99107.53;4346656;32;34215;-81
2022/08/22 07:47:15;;;;;;;;;;;;;;;22.22;75.01;99109.59;4346449;33;33401;-68
2022/08/22 07:49:56;;;;;;;;;;;;;;;21.69;75.87;99112.91;4333505;33;34094;-78
2022/08/22 07:52:23;;;;;;;;;;;;;;;22.40;74.95;99118.56;4333516;33;34148;-69
2022/08/22 07:54:51;;;;;;;;;;;;;;;22.74;73.98;99117.28;4333864;32;34857;-69
2022/08/22 07:57:23;;;;;;;;;;;;;;;22.96;74.36;99120.72;4360901;32;34092;-66
2022/08/22 07:59:52;;;;;;;;;;;;;;;22.41;73.92;99114.63;4346676;32;34194;-87
2022/08/22 08:02:21;;;;;;;;;;;;;;;22.91;73.39;99111.50;4335627;32;35188;-76
2022/08/22 08:04:50;;;;;;;;;;;;;;;22.94;72.46;99115.56;4348081;32;33812;-67
2022/08/22 08:07:18;;;;;;;;;;;;;;;23.30;72.60;99114.75;4347843;32;34287;-68
2022/08/22 08:09:47;;;;;;;;;;;;;;;22.65;72.21;99109.09;4347117;32;34143;-81
2022/08/22 08:12:15;;;;;;;;;;;;;;;22.85;71.69;99112.94;4346778;32;35355;-79
2022/08/22 08:14:43;;;;;;;;;;;;;;;23.21;71.58;99116.03;4347437;32;34202;-66
2022/08/22 08:17:16;;;;;;;;;;;;;;;23.34;74.24;99118.41;4347423;32;34274;-71
2022/08/22 08:19:44;;;;;;;;;;;;;;;23.29;72.39;99120.62;4349247;32;35519;-78
2022/08/22 08:22:13;;;;;;;;;;;;;;;22.77;72.70;99121.34;4349487;32;34283;-77
2022/08/22 08:24:40;;;;;;;;;;;;;;;23.33;71.08;99127.88;4349223;32;34804;-67
2022/08/22 08:30:03;;;;;;;;;;;;;;;23.74;68.84;99111.25;4350662;32;35029;-72
2022/08/22 08:32:31;;;;;;;;;;;;;;;23.77;68.38;99113.34;4349729;32;34438;-67
2022/08/22 08:35:05;;;;;;;;;;;;;;;23.72;67.52;99116.34;4349636;32;34203;-67
2022/08/22 08:37:35;;;;;;;;;;;;;;;23.80;66.49;99120.12;4340741;33;34065;-72
2022/08/22 08:40:03;;;;;;;;;;;;;;;23.96;67.53;99115.44;4310079;33;33249;-73
2022/08/22 08:45:46;;;;;;;;;;;;;;;23.25;69.21;99123.28;4336675;33;34038;-65
2022/08/22 08:48:14;;;;;;;;;;;;;;;22.75;71.70;99116.16;4334714;33;33545;-65
2022/08/22 08:50:51;;;;;;;;;;;;;;;23.42;69.82;99118.63;4348002;33;34722;-76
2022/08/22 08:53:24;;;;;;;;;;;;;;;22.34;72.48;99115.19;4334415;33;34143;-66
2022/08/22 08:55:52;;;;;;;;;;;;;;;22.73;73.77;99119.25;4351063;32;34300;-72
2022/08/22 08:58:27;;;;;;;;;;;;;;;22.86;74.08;99120.06;4363361;32;33971;-78
2022/08/22 09:01:00;;;;;;;;;;;;;;;22.28;74.45;99120.12;4350185;32;34471;-79
2022/08/22 09:03:28;;;;;;;;;;;;;;;22.88;73.28;99125.25;4363982;32;34363;-74
2022/08/22 09:06:00;;;;;;;;;;;;;;;22.89;72.44;99122.16;4363723;32;34554;-71
2022/08/22 09:08:38;;;;;;;;;;;;;;;22.66;73.92;99123.75;4356325;32;33568;-77
2022/08/22 09:11:05;;;;;;;;;;;;;;;23.00;72.56;99124.41;4335321;33;34236;-73
2022/08/22 09:13:44;;;;;;;;;;;;;;;22.66;72.38;99132.06;4349113;33;34552;-73
2022/08/22 09:16:23;;;;;;;;;;;;;;;22.83;72.95;99128.22;4348383;33;34340;-74
2022/08/22 09:18:50;;;;;;;;;;;;;;;22.67;71.94;99122.59;4349057;33;34271;-72
2022/08/22 09:21:37;;;;;;;;;;;;;;;22.90;70.92;99132.03;4348569;33;35156;-78
2022/08/22 09:24:04;;;;;;;;;;;;;;;22.41;73.51;99123.72;4360862;32;34464;-74
2022/08/22 09:26:51;;;;;;;;;;;;;;;22.85;69.99;99129.53;4361917;32;34216;-69
2022/08/22 09:29:43;;;;;;;;;;;;;;;23.01;69.61;99137.16;4363528;32;34229;-69
2022/08/22 09:32:33;;;;;;;;;;;;;;;23.01;71.81;99129.66;4352033;32;34359;-69
2022/08/22 09:35:06;;;;;;;;;;;;;;;22.87;71.19;99127.22;4363677;32;34641;-79
2022/08/22 09:37:53;;;;;;;;;;;;;;;22.89;71.47;99126.84;4345469;33;34325;-73
2022/08/22 09:40:24;;;;;;;;;;;;;;;23.48;69.42;99129.09;4335132;33;33490;-82
2022/08/22 09:43:01;;;;;;;;;;;;;;;23.47;71.25;99116.41;4336344;33;34294;-69
2022/08/22 09:45:38;;;;;;;;;;;;;;;23.52;71.29;99130.03;4335651;33;35300;-72
2022/08/22 09:48:12;;;;;;;;;;;;;;;23.34;71.09;99134.22;4348764;33;34195;-72
2022/08/22 09:50:58;;;;;;;;;;;;;;;23.54;69.67;99129.66;4335263;33;33518;-72
2022/08/22 09:53:48;;;;;;;;;;;;;;;23.92;67.82;99133.94;4361255;32;34179;-76
2022/08/22 09:56:22;;;;;;;;;;;;;;;24.02;67.29;99130.66;4363357;32;34381;-73
2022/08/22 09:58:58;;;;;;;;;;;;;;;23.77;67.68;99131.94;4350524;32;34316;-69
2022/08/22 10:01:38;;;;;;;;;;;;;;;23.83;68.99;99130.53;4362903;32;33271;-80
2022/08/22 10:04:20;;;;;;;;;;;;;;;24.05;67.70;99127.16;4363538;32;34344;-70
2022/08/22 10:06:50;;;;;;;;;;;;;;;24.09;68.77;99130.84;4363334;32;34281;-69
2022/08/22 10:09:20;;;;;;;;;;;;;;;23.95;70.67;99131.28;4363198;32;34281;-74
2022/08/22 10:12:04;;;;;;;;;;;;;;;24.11;68.29;99133.28;4350683;32;33302;-69
2022/08/22 10:14:44;;;;;;;;;;;;;;;24.05;69.23;99135.50;4334547;33;34099;-77
2022/08/22 10:17:23;;;;;;;;;;;;;;;23.90;69.56;99134.28;4348382;33;35322;-85
2022/08/22 10:19:51;;;;;;;;;;;;;;;23.62;71.55;99134.25;4322626;33;34330;-69
2022/08/22 10:22:18;;;;;;;;;;;;;;;24.00;70.69;99135.75;4334626;33;33246;-70
2022/08/22 10:24:54;;;;;;;;;;;;;;;23.26;74.62;99137.91;4348395;33;34150;-69
2022/08/22 10:27:43;;;;;;;;;;;;;;;23.36;72.98;99142.16;4342831;33;34518;-71
2022/08/22 10:30:13;;;;;;;;;;;;;;;23.27;73.27;99142.31;4347815;33;34920;-70
2022/08/22 10:33:01;;;;;;;;;;;;;;;23.61;71.31;99129.88;4323366;33;32708;-70
2022/08/22 10:35:32;;;;;;;;;;;;;;;22.98;74.74;99138.63;4348225;32;34392;-72
2022/08/22 10:38:15;;;;;;;;;;;;;;;23.72;73.21;99131.00;4334725;33;34310;-69
2022/08/22 10:40:55;;;;;;;;;;;;;;;23.92;71.37;99125.63;4347513;33;34164;-70
2022/08/22 10:43:38;;;;;;;;;;;;;;;24.18;72.15;99139.00;4335151;33;34231;-69
2022/08/22 10:46:14;;;;;;;;;;;;;;;23.95;69.68;99136.81;4335204;33;34356;-69
2022/08/22 10:48:44;;;;;;;;;;;;;;;23.99;69.08;99142.44;4347495;32;34552;-68
2022/08/22 10:51:11;;;;;;;;;;;;;;;23.63;69.90;99132.28;4349533;32;35142;-86
2022/08/22 10:53:57;;;;;;;;;;;;;;;24.51;69.34;99135.13;4362988;32;33440;-71
2022/08/22 10:56:42;;;;;;;;;;;;;;;23.68;67.12;99134.81;4363075;32;34807;-71
2022/08/22 10:59:10;;;;;;;;;;;;;;;24.75;67.69;99132.19;4334565;32;34365;-77
2022/08/22 11:01:39;;;;;;;;;;;;;;;25.02;66.53;99137.16;4347695;32;34002;-70
2022/08/22 11:04:32;;;;;;;;;;;;;;;25.35;65.22;99129.22;4344166;32;33516;-68
2022/08/22 11:07:13;;;;;;;;;;;;;;;24.35;60.65;99127.56;4333975;33;34920;-69
2022/08/22 11:09:41;;;;;;;;;;;;;;;24.64;63.59;99130.31;4347044;33;34544;-71
2022/08/22 11:12:29;;;;;;;;;;;;;;;25.42;62.52;99127.78;4346488;33;34013;-70
2022/08/22 11:15:01;;;;;;;;;;;;;;;25.54;62.31;99127.66;4352866;32;33052;-72
2022/08/22 11:20:06;;;;;;;4.43;3.40;;;;;;;26.14;59.42;99127.28;4516445;31;1011108;-68
2022/08/22 11:23:07;;;;;;;6.37;4.45;;;;;;;26.14;59.42;99127.28;4543818;31;33450;-73
2022/08/22 11:26:06;;;;;;;7.35;5.47;;;;;;;25.88;61.52;99127.94;4503196;31;33605;-69
2022/08/22 11:28:52;;;;;;;8.32;6.03;;;;;;;25.98;62.73;99133.75;4495925;31;34209;-72
2022/08/22 11:31:46;;;;;;;7.32;5.47;;;;;;;25.71;63.17;99123.63;4495427;31;33852;-68
2022/08/22 11:34:41;;;;;;;8.48;5.62;;;;;;;25.72;61.66;99122.44;4481689;32;34291;-68
2022/08/22 11:37:39;;;;;;;11.25;6.70;;;;;;;25.46;65.52;99126.69;4467149;31;33552;-68
2022/08/22 11:40:22;;;;;;;11.30;6.75;;;;;;;25.69;64.74;99124.00;4488465;32;34354;-69
2022/08/22 11:43:21;;;;;;;11.48;6.95;;;;;;;25.55;63.62;99115.34;4480152;32;33891;-68
2022/08/22 11:45:51;;;;;;;11.77;7.05;;;;;;;25.63;64.56;99121.88;4479830;32;33552;-69
2022/08/22 11:48:22;;;;;;;8.38;5.50;;;;;;;26.10;63.05;99127.22;4465204;32;34926;-68
2022/08/22 11:51:12;;;;;;;10.10;5.93;;;;;;;26.05;60.75;99121.97;4489379;32;34191;-87
2022/08/22 11:53:53;;;;;;;8.63;5.72;;;;;;;25.70;62.52;99116.44;4478700;32;33664;-86
2022/08/22 11:56:47;;;;;;;8.02;5.72;;;;;;;25.01;62.97;99114.16;4465908;32;33094;-83
2022/08/22 11:59:53;;;;;;;8.82;5.60;;;;;;;25.72;62.42;99114.94;4472522;32;34061;-84
2022/08/22 12:02:49;;;;;;;8.27;5.37;;;;;;;26.14;60.66;99119.75;4465723;32;35062;-88
2022/08/22 12:05:23;;;;;;;9.93;6.12;;;;;;;25.80;60.13;99110.31;4479568;32;33999;-74
2022/08/22 12:08:11;;;;;;;8.60;5.82;;;;;;;25.68;60.84;99108.50;4466080;32;33242;-71
2022/08/22 12:11:07;;;;;;;9.68;6.43;;;;;;;25.91;60.99;99113.34;4479664;32;33699;-70
2022/08/22 12:13:48;;;;;;;8.32;5.57;;;;;;;25.41;61.35;99107.53;4474340;32;34138;-70
2022/08/22 12:16:34;;;;;;;9.13;6.40;;;;;;;25.60;62.91;99111.50;4479851;32;34474;-70
2022/08/22 12:19:28;;;;;;;10.43;7.25;;;;;;;25.71;59.08;99109.75;4479049;32;34262;-72
2022/08/22 12:22:29;;;;;;;9.48;6.28;;;;;;;26.05;59.65;99107.22;4466353;32;34528;-91
2022/08/22 12:25:09;;;;;;;10.25;6.00;;;;;;;26.66;57.61;99109.16;4479619;32;34246;-91
2022/08/22 12:27:44;;;;;;;9.57;6.25;;;;;;;26.22;59.09;99105.97;4479800;32;33423;-84
2022/08/22 12:30:59;;;;;;;11.18;6.65;;;;;;;25.78;60.54;99110.66;4472822;32;33477;-71
2022/08/22 12:33:36;;;;;;;8.77;6.10;;;;;;;25.61;62.45;99107.53;4468589;32;33561;-70
2022/08/22 12:36:26;;;;;;;8.70;5.47;;;;;;;25.67;59.61;99106.88;4469056;32;34988;-69
2022/08/22 12:39:23;;;;;;;9.45;6.22;;;;;;;25.86;61.57;99110.84;4454895;32;33928;-70
2022/08/22 12:42:09;;;;;;;7.53;5.00;;;;;;;25.93;62.52;99103.44;4469592;32;33014;-69
2022/08/22 12:44:43;;;;;;;9.82;5.70;;;;;;;26.33;60.24;99105.00;4468714;32;34043;-80
2022/08/22 12:47:19;;;;;;;9.77;5.30;;;;;;;26.41;59.18;99103.13;4469085;32;33909;-69
2022/08/22 12:50:05;;;;;;;10.15;5.30;;;;;;;25.93;59.28;99109.00;4468310;32;32471;-69
2022/08/22 12:53:04;;;;;;;7.28;5.30;;;;;;;25.89;60.52;99110.91;4454913;32;33572;-91
2022/08/22 12:55:55;;;;;;;6.72;4.90;;;;;;;25.87;60.47;99112.44;4468747;32;34857;-70
2022/08/22 12:58:44;;;;;;;9.70;6.05;;;;;;;26.10;60.35;99120.84;4468859;32;33821;-74
2022/08/22 13:01:18;;;;;;;8.90;5.43;;;;;;;25.82;61.32;99115.50;4466668;32;33971;-78
2022/08/22 13:03:53;;;;;;;6.07;3.30;;;;;;;25.24;63.60;99121.84;4454064;32;33164;-73
2022/08/22 13:06:46;;;;;;;6.10;3.20;;;;;;;25.30;59.72;99117.59;4456051;32;34075;-83
2022/08/22 13:09:25;;;;;;;4.50;2.67;;;;;;;24.50;61.39;99119.66;4456728;32;34165;-73
2022/08/22 13:12:19;;;;;;;4.30;2.80;;;;;;;24.42;61.54;99109.53;4456325;32;34587;-73
2022/08/22 13:14:58;;;;;;;4.25;2.78;;;;;;;24.68;60.56;99112.56;4469698;32;33311;-76
2022/08/22 13:17:26;;;;;;;5.03;3.33;;;;;;;24.35;62.92;99121.22;4455969;32;33811;-88
2022/08/22 13:20:09;;;;;;;5.00;3.28;;;;;;;24.57;63.18;99117.06;4470375;32;34260;-88
2022/08/22 13:22:39;;;;;;;6.62;3.72;;;;;;;24.81;62.00;99121.59;4456676;32;34444;-71
2022/08/22 13:25:24;;;;;;;6.20;3.70;;;;;;;24.67;62.75;99122.06;4456922;32;33422;-73
2022/08/22 13:27:56;;;;;;;4.28;3.15;;;;;;;24.58;63.63;99120.62;4456333;32;34964;-72
2022/08/22 13:30:34;;;;;;;5.60;3.95;;;;;;;24.36;65.27;99123.66;4457019;32;35140;-93
2022/08/22 13:33:15;;;;;;;4.82;3.55;;;;;;;24.91;62.73;99120.25;4456033;32;33617;-89